Lockerbie, United Kingdom
Current Conditions -  °F | °C
As of 12:20 PM on Thursday 30 Oct 2014 (Local Time) from EGNC Reporting Station
Rain Showers Rain Showers  
Wind Chill: 57°   Ceiling: 2000
Heat Index: 57°   Visibility: 6mi
Dew Point: 55°   Wind: 9mph
Humidity: 94%   Direction: 180°S
Pressure: 29.91"   Gusts: NA
Location:  55.12°N, 3.36°W
Report Text: EGNC 301220Z 18008KT 140V210 9999 VCSH FEW015 BKN020 14/13 Q1013
Loading
Personal Weather Stations






























Interactive Weather Map New forecast layout! Learn more

10-Day Weather Forecast

Advertisements
Track Severe Weather on mobile